sensor_id;sensor_type;location;lat;lon;timestamp;P1;durP1;ratioP1;P2;durP2;ratioP2
29378;SDS011;16362;47.202;15.258;2023-06-22T00:01:18;8.50;;;6.05;;
29378;SDS011;16362;47.202;15.258;2023-06-22T00:03:46;14.23;;;6.55;;
29378;SDS011;16362;47.202;15.258;2023-06-22T00:06:13;9.68;;;5.35;;
29378;SDS011;16362;47.202;15.258;2023-06-22T00:08:40;14.63;;;6.97;;
29378;SDS011;16362;47.202;15.258;2023-06-22T00:11:06;14.27;;;6.85;;
29378;SDS011;16362;47.202;15.258;2023-06-22T00:13:33;14.05;;;6.15;;
29378;SDS011;16362;47.202;15.258;2023-06-22T00:16:00;16.77;;;6.13;;
29378;SDS011;16362;47.202;15.258;2023-06-22T00:18:27;19.30;;;6.18;;
29378;SDS011;16362;47.202;15.258;2023-06-22T00:20:55;21.35;;;6.32;;
29378;SDS011;16362;47.202;15.258;2023-06-22T00:23:25;15.55;;;7.03;;
29378;SDS011;16362;47.202;15.258;2023-06-22T00:25:52;8.32;;;6.30;;
29378;SDS011;16362;47.202;15.258;2023-06-22T00:28:19;14.93;;;6.75;;
29378;SDS011;16362;47.202;15.258;2023-06-22T00:30:45;13.52;;;6.18;;
29378;SDS011;16362;47.202;15.258;2023-06-22T00:33:12;18.52;;;6.32;;
29378;SDS011;16362;47.202;15.258;2023-06-22T00:35:39;15.15;;;7.32;;
29378;SDS011;16362;47.202;15.258;2023-06-22T00:38:07;10.88;;;6.70;;
29378;SDS011;16362;47.202;15.258;2023-06-22T00:40:34;16.38;;;6.95;;
29378;SDS011;16362;47.202;15.258;2023-06-22T00:43:01;9.15;;;6.50;;
29378;SDS011;16362;47.202;15.258;2023-06-22T00:45:28;9.23;;;6.88;;
29378;SDS011;16362;47.202;15.258;2023-06-22T00:47:58;8.57;;;6.80;;
29378;SDS011;16362;47.202;15.258;2023-06-22T00:50:26;11.60;;;7.10;;
29378;SDS011;16362;47.202;15.258;2023-06-22T00:52:56;15.70;;;7.00;;
29378;SDS011;16362;47.202;15.258;2023-06-22T00:55:25;13.85;;;8.07;;
29378;SDS011;16362;47.202;15.258;2023-06-22T00:57:53;16.63;;;7.85;;
29378;SDS011;16362;47.202;15.258;2023-06-22T01:00:25;11.50;;;8.30;;
29378;SDS011;16362;47.202;15.258;2023-06-22T01:02:52;12.52;;;7.25;;
29378;SDS011;16362;47.202;15.258;2023-06-22T01:05:20;14.20;;;8.07;;
29378;SDS011;16362;47.202;15.258;2023-06-22T01:07:58;8.77;;;7.30;;
29378;SDS011;16362;47.202;15.258;2023-06-22T01:18:44;16.67;;;7.53;;
29378;SDS011;16362;47.202;15.258;2023-06-22T01:21:14;15.98;;;8.63;;
29378;SDS011;16362;47.202;15.258;2023-06-22T01:29:33;12.55;;;7.07;;
29378;SDS011;16362;47.202;15.258;2023-06-22T01:32:03;18.40;;;8.70;;
29378;SDS011;16362;47.202;15.258;2023-06-22T01:34:34;17.15;;;9.27;;
29378;SDS011;16362;47.202;15.258;2023-06-22T01:37:03;22.95;;;8.77;;
29378;SDS011;16362;47.202;15.258;2023-06-22T01:39:30;21.83;;;9.13;;
29378;SDS011;16362;47.202;15.258;2023-06-22T01:41:58;11.60;;;8.20;;
29378;SDS011;16362;47.202;15.258;2023-06-22T01:44:26;10.85;;;8.63;;
29378;SDS011;16362;47.202;15.258;2023-06-22T01:46:53;13.45;;;8.23;;
29378;SDS011;16362;47.202;15.258;2023-06-22T01:49:20;16.75;;;8.90;;
29378;SDS011;16362;47.202;15.258;2023-06-22T01:51:48;18.17;;;7.95;;
29378;SDS011;16362;47.202;15.258;2023-06-22T01:54:15;20.35;;;7.85;;
29378;SDS011;16362;47.202;15.258;2023-06-22T01:56:41;15.18;;;8.18;;
29378;SDS011;16362;47.202;15.258;2023-06-22T01:59:17;13.77;;;8.20;;
29378;SDS011;16362;47.202;15.258;2023-06-22T02:02:08;11.27;;;8.32;;
29378;SDS011;16362;47.202;15.258;2023-06-22T02:04:44;15.07;;;9.48;;
29378;SDS011;16362;47.202;15.258;2023-06-22T02:07:15;18.08;;;9.32;;
29378;SDS011;16362;47.202;15.258;2023-06-22T02:09:45;9.77;;;7.00;;
29378;SDS011;16362;47.202;15.258;2023-06-22T02:12:17;15.57;;;8.50;;
29378;SDS011;16362;47.202;15.258;2023-06-22T02:14:47;14.43;;;7.40;;
29378;SDS011;16362;47.202;15.258;2023-06-22T02:17:14;14.68;;;7.45;;
29378;SDS011;16362;47.202;15.258;2023-06-22T02:19:43;20.65;;;8.07;;
29378;SDS011;16362;47.202;15.258;2023-06-22T02:22:09;24.30;;;7.20;;
29378;SDS011;16362;47.202;15.258;2023-06-22T02:24:36;13.43;;;7.40;;
29378;SDS011;16362;47.202;15.258;2023-06-22T02:27:03;9.10;;;6.82;;
29378;SDS011;16362;47.202;15.258;2023-06-22T02:29:30;15.05;;;7.35;;
29378;SDS011;16362;47.202;15.258;2023-06-22T02:31:57;14.43;;;6.55;;
29378;SDS011;16362;47.202;15.258;2023-06-22T02:34:24;11.15;;;6.57;;
29378;SDS011;16362;47.202;15.258;2023-06-22T02:36:51;11.98;;;6.97;;
29378;SDS011;16362;47.202;15.258;2023-06-22T02:39:22;15.25;;;7.07;;
29378;SDS011;16362;47.202;15.258;2023-06-22T02:41:50;11.20;;;6.15;;
29378;SDS011;16362;47.202;15.258;2023-06-22T02:44:18;15.02;;;7.55;;
29378;SDS011;16362;47.202;15.258;2023-06-22T02:46:45;12.07;;;6.70;;
29378;SDS011;16362;47.202;15.258;2023-06-22T02:49:13;11.18;;;6.30;;
29378;SDS011;16362;47.202;15.258;2023-06-22T02:51:41;17.15;;;6.90;;
29378;SDS011;16362;47.202;15.258;2023-06-22T02:54:11;10.38;;;7.45;;
29378;SDS011;16362;47.202;15.258;2023-06-22T02:56:38;11.65;;;7.50;;
29378;SDS011;16362;47.202;15.258;2023-06-22T02:59:07;16.05;;;7.45;;
29378;SDS011;16362;47.202;15.258;2023-06-22T03:01:33;7.32;;;6.65;;
29378;SDS011;16362;47.202;15.258;2023-06-22T03:04:06;16.33;;;7.18;;
29378;SDS011;16362;47.202;15.258;2023-06-22T03:06:34;8.88;;;7.57;;
29378;SDS011;16362;47.202;15.258;2023-06-22T03:09:04;15.45;;;6.85;;
29378;SDS011;16362;47.202;15.258;2023-06-22T03:11:32;11.40;;;6.80;;
29378;SDS011;16362;47.202;15.258;2023-06-22T03:13:59;20.92;;;7.90;;
29378;SDS011;16362;47.202;15.258;2023-06-22T03:16:27;19.33;;;8.77;;
29378;SDS011;16362;47.202;15.258;2023-06-22T03:18:55;16.60;;;7.85;;
29378;SDS011;16362;47.202;15.258;2023-06-22T03:21:22;16.23;;;7.78;;
29378;SDS011;16362;47.202;15.258;2023-06-22T03:23:49;13.65;;;7.38;;
29378;SDS011;16362;47.202;15.258;2023-06-22T03:26:16;20.25;;;7.43;;
29378;SDS011;16362;47.202;15.258;2023-06-22T03:28:44;11.25;;;7.38;;
29378;SDS011;16362;47.202;15.258;2023-06-22T03:31:10;14.45;;;7.40;;
29378;SDS011;16362;47.202;15.258;2023-06-22T03:33:37;21.67;;;7.93;;
29378;SDS011;16362;47.202;15.258;2023-06-22T03:36:04;13.00;;;7.50;;
29378;SDS011;16362;47.202;15.258;2023-06-22T03:38:31;15.13;;;8.55;;
29378;SDS011;16362;47.202;15.258;2023-06-22T03:40:57;10.93;;;7.47;;
29378;SDS011;16362;47.202;15.258;2023-06-22T03:43:24;16.08;;;7.85;;
29378;SDS011;16362;47.202;15.258;2023-06-22T03:45:50;10.13;;;7.15;;
29378;SDS011;16362;47.202;15.258;2023-06-22T03:48:17;17.83;;;7.80;;
29378;SDS011;16362;47.202;15.258;2023-06-22T03:50:44;17.95;;;7.55;;
29378;SDS011;16362;47.202;15.258;2023-06-22T03:53:11;20.05;;;7.55;;
29378;SDS011;16362;47.202;15.258;2023-06-22T03:55:45;16.15;;;7.70;;
29378;SDS011;16362;47.202;15.258;2023-06-22T03:58:17;9.35;;;7.07;;
29378;SDS011;16362;47.202;15.258;2023-06-22T04:00:52;11.75;;;7.07;;
29378;SDS011;16362;47.202;15.258;2023-06-22T04:03:19;14.23;;;8.10;;
29378;SDS011;16362;47.202;15.258;2023-06-22T04:05:46;14.57;;;7.65;;
29378;SDS011;16362;47.202;15.258;2023-06-22T04:08:14;22.33;;;7.38;;
29378;SDS011;16362;47.202;15.258;2023-06-22T04:10:41;14.52;;;8.57;;
29378;SDS011;16362;47.202;15.258;2023-06-22T04:13:08;14.65;;;7.43;;
29378;SDS011;16362;47.202;15.258;2023-06-22T04:15:35;16.77;;;8.02;;
29378;SDS011;16362;47.202;15.258;2023-06-22T04:18:01;13.98;;;7.65;;
29378;SDS011;16362;47.202;15.258;2023-06-22T04:20:28;21.38;;;8.93;;
29378;SDS011;16362;47.202;15.258;2023-06-22T04:22:55;17.33;;;8.73;;
29378;SDS011;16362;47.202;15.258;2023-06-22T04:25:22;16.75;;;7.90;;
29378;SDS011;16362;47.202;15.258;2023-06-22T04:27:49;13.27;;;7.70;;
29378;SDS011;16362;47.202;15.258;2023-06-22T04:30:16;13.77;;;7.30;;
29378;SDS011;16362;47.202;15.258;2023-06-22T04:32:43;21.38;;;8.90;;
29378;SDS011;16362;47.202;15.258;2023-06-22T04:35:11;16.60;;;7.38;;
29378;SDS011;16362;47.202;15.258;2023-06-22T04:37:38;21.42;;;7.53;;
29378;SDS011;16362;47.202;15.258;2023-06-22T04:40:06;15.20;;;7.63;;
29378;SDS011;16362;47.202;15.258;2023-06-22T04:42:37;17.58;;;8.25;;
29378;SDS011;16362;47.202;15.258;2023-06-22T04:45:05;13.93;;;7.57;;
29378;SDS011;16362;47.202;15.258;2023-06-22T04:47:32;13.85;;;7.45;;
29378;SDS011;16362;47.202;15.258;2023-06-22T04:49:58;23.35;;;8.20;;
29378;SDS011;16362;47.202;15.258;2023-06-22T04:52:25;13.98;;;7.60;;
29378;SDS011;16362;47.202;15.258;2023-06-22T04:54:52;13.93;;;9.05;;
29378;SDS011;16362;47.202;15.258;2023-06-22T04:57:22;17.40;;;8.45;;
29378;SDS011;16362;47.202;15.258;2023-06-22T04:59:57;10.43;;;7.88;;
29378;SDS011;16362;47.202;15.258;2023-06-22T05:02:23;14.98;;;8.43;;
29378;SDS011;16362;47.202;15.258;2023-06-22T05:04:54;15.70;;;8.02;;
29378;SDS011;16362;47.202;15.258;2023-06-22T05:07:23;14.68;;;7.60;;
29378;SDS011;16362;47.202;15.258;2023-06-22T05:09:51;20.25;;;9.07;;
29378;SDS011;16362;47.202;15.258;2023-06-22T05:12:18;19.15;;;8.45;;
29378;SDS011;16362;47.202;15.258;2023-06-22T05:14:45;12.07;;;7.95;;
29378;SDS011;16362;47.202;15.258;2023-06-22T05:17:11;19.92;;;8.40;;
29378;SDS011;16362;47.202;15.258;2023-06-22T05:19:41;22.70;;;8.38;;
29378;SDS011;16362;47.202;15.258;2023-06-22T05:22:11;19.27;;;8.68;;
29378;SDS011;16362;47.202;15.258;2023-06-22T05:24:38;19.23;;;8.07;;
29378;SDS011;16362;47.202;15.258;2023-06-22T05:27:05;19.65;;;8.48;;
29378;SDS011;16362;47.202;15.258;2023-06-22T05:29:32;19.15;;;8.48;;
29378;SDS011;16362;47.202;15.258;2023-06-22T05:31:58;12.65;;;8.02;;
29378;SDS011;16362;47.202;15.258;2023-06-22T05:34:25;14.30;;;8.15;;
29378;SDS011;16362;47.202;15.258;2023-06-22T05:36:52;13.32;;;7.82;;
29378;SDS011;16362;47.202;15.258;2023-06-22T05:39:18;18.95;;;8.85;;
29378;SDS011;16362;47.202;15.258;2023-06-22T05:41:45;16.88;;;9.05;;
29378;SDS011;16362;47.202;15.258;2023-06-22T05:44:12;17.90;;;8.63;;
29378;SDS011;16362;47.202;15.258;2023-06-22T05:46:40;13.60;;;8.98;;
29378;SDS011;16362;47.202;15.258;2023-06-22T05:49:11;26.33;;;8.93;;
29378;SDS011;16362;47.202;15.258;2023-06-22T05:51:38;27.20;;;9.52;;
29378;SDS011;16362;47.202;15.258;2023-06-22T05:54:05;17.33;;;9.45;;
29378;SDS011;16362;47.202;15.258;2023-06-22T05:56:32;22.70;;;9.50;;
29378;SDS011;16362;47.202;15.258;2023-06-22T05:58:59;19.88;;;10.40;;
29378;SDS011;16362;47.202;15.258;2023-06-22T06:01:25;12.75;;;9.50;;
29378;SDS011;16362;47.202;15.258;2023-06-22T06:03:52;18.73;;;8.98;;
29378;SDS011;16362;47.202;15.258;2023-06-22T06:06:19;13.55;;;9.90;;
29378;SDS011;16362;47.202;15.258;2023-06-22T06:08:55;20.15;;;10.45;;
29378;SDS011;16362;47.202;15.258;2023-06-22T06:11:22;27.48;;;12.25;;
29378;SDS011;16362;47.202;15.258;2023-06-22T06:13:49;21.42;;;10.15;;
29378;SDS011;16362;47.202;15.258;2023-06-22T06:16:16;25.98;;;10.55;;
29378;SDS011;16362;47.202;15.258;2023-06-22T06:18:42;12.52;;;9.40;;
29378;SDS011;16362;47.202;15.258;2023-06-22T06:21:09;22.75;;;11.23;;
29378;SDS011;16362;47.202;15.258;2023-06-22T06:23:36;19.98;;;11.27;;
29378;SDS011;16362;47.202;15.258;2023-06-22T06:26:02;16.33;;;10.68;;
29378;SDS011;16362;47.202;15.258;2023-06-22T06:28:34;13.82;;;10.52;;
29378;SDS011;16362;47.202;15.258;2023-06-22T06:31:01;22.10;;;11.82;;
29378;SDS011;16362;47.202;15.258;2023-06-22T06:33:27;19.67;;;11.82;;
29378;SDS011;16362;47.202;15.258;2023-06-22T06:35:54;15.65;;;11.48;;
29378;SDS011;16362;47.202;15.258;2023-06-22T06:38:22;16.40;;;11.57;;
29378;SDS011;16362;47.202;15.258;2023-06-22T06:40:49;22.08;;;12.27;;
29378;SDS011;16362;47.202;15.258;2023-06-22T06:43:16;18.90;;;12.10;;
29378;SDS011;16362;47.202;15.258;2023-06-22T06:45:42;17.27;;;12.57;;
29378;SDS011;16362;47.202;15.258;2023-06-22T06:48:09;17.63;;;11.18;;
29378;SDS011;16362;47.202;15.258;2023-06-22T06:50:36;21.85;;;11.95;;
29378;SDS011;16362;47.202;15.258;2023-06-22T06:53:03;24.42;;;12.73;;
29378;SDS011;16362;47.202;15.258;2023-06-22T06:55:29;17.77;;;11.23;;
29378;SDS011;16362;47.202;15.258;2023-06-22T06:57:59;21.65;;;12.20;;
29378;SDS011;16362;47.202;15.258;2023-06-22T07:00:26;12.88;;;11.27;;
29378;SDS011;16362;47.202;15.258;2023-06-22T07:02:53;22.88;;;11.95;;
29378;SDS011;16362;47.202;15.258;2023-06-22T07:05:20;20.23;;;12.70;;
29378;SDS011;16362;47.202;15.258;2023-06-22T07:07:47;23.17;;;12.45;;
29378;SDS011;16362;47.202;15.258;2023-06-22T07:10:14;23.77;;;13.05;;
29378;SDS011;16362;47.202;15.258;2023-06-22T07:12:41;24.40;;;12.52;;
29378;SDS011;16362;47.202;15.258;2023-06-22T07:15:09;18.05;;;12.82;;
29378;SDS011;16362;47.202;15.258;2023-06-22T07:17:36;25.08;;;12.85;;
29378;SDS011;16362;47.202;15.258;2023-06-22T07:20:04;16.15;;;12.30;;
29378;SDS011;16362;47.202;15.258;2023-06-22T07:22:39;16.80;;;12.45;;
29378;SDS011;16362;47.202;15.258;2023-06-22T07:25:06;20.48;;;12.30;;
29378;SDS011;16362;47.202;15.258;2023-06-22T07:27:37;21.25;;;12.40;;
29378;SDS011;16362;47.202;15.258;2023-06-22T07:30:06;22.58;;;13.00;;
29378;SDS011;16362;47.202;15.258;2023-06-22T07:32:33;16.55;;;12.05;;
29378;SDS011;16362;47.202;15.258;2023-06-22T07:35:00;27.35;;;11.63;;
29378;SDS011;16362;47.202;15.258;2023-06-22T07:37:28;20.55;;;12.13;;
29378;SDS011;16362;47.202;15.258;2023-06-22T07:39:55;20.75;;;12.73;;
29378;SDS011;16362;47.202;15.258;2023-06-22T07:42:25;14.82;;;11.57;;
29378;SDS011;16362;47.202;15.258;2023-06-22T07:44:53;20.50;;;12.35;;
29378;SDS011;16362;47.202;15.258;2023-06-22T07:47:20;16.60;;;12.35;;
29378;SDS011;16362;47.202;15.258;2023-06-22T07:49:51;28.55;;;13.73;;
29378;SDS011;16362;47.202;15.258;2023-06-22T07:52:21;28.90;;;13.63;;
29378;SDS011;16362;47.202;15.258;2023-06-22T07:54:47;21.05;;;12.85;;
29378;SDS011;16362;47.202;15.258;2023-06-22T07:57:14;22.02;;;11.75;;
29378;SDS011;16362;47.202;15.258;2023-06-22T07:59:41;21.85;;;12.70;;
29378;SDS011;16362;47.202;15.258;2023-06-22T08:02:07;18.00;;;11.85;;
29378;SDS011;16362;47.202;15.258;2023-06-22T08:04:35;18.58;;;12.15;;
29378;SDS011;16362;47.202;15.258;2023-06-22T08:07:02;16.88;;;11.13;;
29378;SDS011;16362;47.202;15.258;2023-06-22T08:09:31;22.23;;;10.73;;
29378;SDS011;16362;47.202;15.258;2023-06-22T08:11:58;15.40;;;10.38;;
29378;SDS011;16362;47.202;15.258;2023-06-22T08:14:26;13.48;;;10.10;;
29378;SDS011;16362;47.202;15.258;2023-06-22T08:16:53;22.88;;;11.07;;
29378;SDS011;16362;47.202;15.258;2023-06-22T08:19:20;17.92;;;11.18;;
29378;SDS011;16362;47.202;15.258;2023-06-22T08:21:46;14.70;;;11.10;;
29378;SDS011;16362;47.202;15.258;2023-06-22T08:24:13;13.00;;;11.30;;
29378;SDS011;16362;47.202;15.258;2023-06-22T08:26:40;21.98;;;11.52;;
29378;SDS011;16362;47.202;15.258;2023-06-22T08:29:06;18.35;;;10.70;;
29378;SDS011;16362;47.202;15.258;2023-06-22T08:31:33;30.02;;;12.77;;
29378;SDS011;16362;47.202;15.258;2023-06-22T08:34:00;21.30;;;10.60;;
29378;SDS011;16362;47.202;15.258;2023-06-22T08:36:27;17.58;;;9.63;;
29378;SDS011;16362;47.202;15.258;2023-06-22T08:38:59;13.50;;;9.75;;
29378;SDS011;16362;47.202;15.258;2023-06-22T08:41:28;22.05;;;10.15;;
29378;SDS011;16362;47.202;15.258;2023-06-22T08:43:55;17.77;;;10.43;;
29378;SDS011;16362;47.202;15.258;2023-06-22T08:46:22;18.15;;;10.57;;
29378;SDS011;16362;47.202;15.258;2023-06-22T08:48:51;14.52;;;9.27;;
29378;SDS011;16362;47.202;15.258;2023-06-22T08:51:17;17.65;;;10.52;;
29378;SDS011;16362;47.202;15.258;2023-06-22T08:53:44;16.70;;;10.68;;
29378;SDS011;16362;47.202;15.258;2023-06-22T08:56:11;17.48;;;11.32;;
29378;SDS011;16362;47.202;15.258;2023-06-22T08:58:38;20.13;;;11.50;;
29378;SDS011;16362;47.202;15.258;2023-06-22T09:01:04;21.00;;;10.95;;
29378;SDS011;16362;47.202;15.258;2023-06-22T09:03:31;12.13;;;10.05;;
29378;SDS011;16362;47.202;15.258;2023-06-22T09:05:59;16.00;;;10.75;;
29378;SDS011;16362;47.202;15.258;2023-06-22T09:08:26;12.88;;;11.02;;
29378;SDS011;16362;47.202;15.258;2023-06-22T09:10:52;19.70;;;11.70;;
29378;SDS011;16362;47.202;15.258;2023-06-22T09:13:19;17.08;;;11.25;;
29378;SDS011;16362;47.202;15.258;2023-06-22T09:15:46;13.05;;;11.50;;
29378;SDS011;16362;47.202;15.258;2023-06-22T09:18:13;18.20;;;11.07;;
29378;SDS011;16362;47.202;15.258;2023-06-22T09:20:40;19.52;;;12.43;;
29378;SDS011;16362;47.202;15.258;2023-06-22T09:23:07;15.65;;;11.38;;
29378;SDS011;16362;47.202;15.258;2023-06-22T09:25:34;27.63;;;12.30;;
29378;SDS011;16362;47.202;15.258;2023-06-22T09:28:00;17.50;;;11.27;;
29378;SDS011;16362;47.202;15.258;2023-06-22T09:30:27;16.55;;;10.85;;
29378;SDS011;16362;47.202;15.258;2023-06-22T09:32:54;24.13;;;11.10;;
29378;SDS011;16362;47.202;15.258;2023-06-22T09:35:21;22.52;;;11.73;;
29378;SDS011;16362;47.202;15.258;2023-06-22T09:37:47;18.30;;;11.10;;
29378;SDS011;16362;47.202;15.258;2023-06-22T09:40:14;16.35;;;11.55;;
29378;SDS011;16362;47.202;15.258;2023-06-22T09:42:43;17.55;;;11.35;;
29378;SDS011;16362;47.202;15.258;2023-06-22T09:45:10;17.50;;;10.52;;
29378;SDS011;16362;47.202;15.258;2023-06-22T09:47:36;14.63;;;11.10;;
29378;SDS011;16362;47.202;15.258;2023-06-22T09:50:04;20.52;;;10.88;;
29378;SDS011;16362;47.202;15.258;2023-06-22T09:52:32;20.73;;;10.40;;
29378;SDS011;16362;47.202;15.258;2023-06-22T09:55:13;17.55;;;11.13;;
29378;SDS011;16362;47.202;15.258;2023-06-22T09:57:42;20.55;;;12.23;;
29378;SDS011;16362;47.202;15.258;2023-06-22T10:00:09;14.75;;;10.73;;
29378;SDS011;16362;47.202;15.258;2023-06-22T10:02:40;17.38;;;11.23;;
29378;SDS011;16362;47.202;15.258;2023-06-22T10:05:08;17.17;;;10.85;;
29378;SDS011;16362;47.202;15.258;2023-06-22T10:07:35;21.98;;;11.48;;
29378;SDS011;16362;47.202;15.258;2023-06-22T10:10:06;22.63;;;11.70;;
29378;SDS011;16362;47.202;15.258;2023-06-22T10:12:33;22.90;;;11.63;;
29378;SDS011;16362;47.202;15.258;2023-06-22T10:15:00;23.55;;;11.02;;
29378;SDS011;16362;47.202;15.258;2023-06-22T10:17:27;13.75;;;10.35;;
29378;SDS011;16362;47.202;15.258;2023-06-22T10:19:54;25.42;;;12.70;;
29378;SDS011;16362;47.202;15.258;2023-06-22T10:22:21;14.90;;;11.88;;
29378;SDS011;16362;47.202;15.258;2023-06-22T10:24:47;23.75;;;11.73;;
29378;SDS011;16362;47.202;15.258;2023-06-22T10:27:14;20.52;;;11.95;;
29378;SDS011;16362;47.202;15.258;2023-06-22T10:29:41;22.08;;;11.45;;
29378;SDS011;16362;47.202;15.258;2023-06-22T10:32:07;18.83;;;12.85;;
29378;SDS011;16362;47.202;15.258;2023-06-22T10:34:34;17.00;;;12.25;;
29378;SDS011;16362;47.202;15.258;2023-06-22T10:37:01;25.10;;;12.85;;
29378;SDS011;16362;47.202;15.258;2023-06-22T10:39:28;20.35;;;12.13;;
29378;SDS011;16362;47.202;15.258;2023-06-22T10:41:54;22.45;;;12.82;;
29378;SDS011;16362;47.202;15.258;2023-06-22T10:44:22;25.50;;;12.60;;
29378;SDS011;16362;47.202;15.258;2023-06-22T10:46:49;17.17;;;12.50;;
29378;SDS011;16362;47.202;15.258;2023-06-22T10:49:15;20.77;;;12.25;;
29378;SDS011;16362;47.202;15.258;2023-06-22T10:51:42;20.92;;;12.52;;
29378;SDS011;16362;47.202;15.258;2023-06-22T10:54:09;18.50;;;12.57;;
29378;SDS011;16362;47.202;15.258;2023-06-22T10:56:35;20.42;;;11.95;;
29378;SDS011;16362;47.202;15.258;2023-06-22T10:59:02;26.13;;;12.07;;
29378;SDS011;16362;47.202;15.258;2023-06-22T11:01:29;22.77;;;11.77;;
29378;SDS011;16362;47.202;15.258;2023-06-22T11:04:02;23.13;;;12.48;;
29378;SDS011;16362;47.202;15.258;2023-06-22T11:06:30;24.30;;;11.50;;
29378;SDS011;16362;47.202;15.258;2023-06-22T11:08:56;25.20;;;12.50;;
29378;SDS011;16362;47.202;15.258;2023-06-22T11:11:37;22.88;;;12.48;;
29378;SDS011;16362;47.202;15.258;2023-06-22T11:14:04;17.30;;;12.02;;
29378;SDS011;16362;47.202;15.258;2023-06-22T11:16:31;26.67;;;12.27;;
29378;SDS011;16362;47.202;15.258;2023-06-22T11:18:57;17.40;;;10.77;;
29378;SDS011;16362;47.202;15.258;2023-06-22T11:21:24;23.48;;;12.07;;
29378;SDS011;16362;47.202;15.258;2023-06-22T11:23:51;26.30;;;12.40;;
29378;SDS011;16362;47.202;15.258;2023-06-22T11:26:17;21.27;;;12.50;;
29378;SDS011;16362;47.202;15.258;2023-06-22T11:28:44;21.05;;;12.23;;
29378;SDS011;16362;47.202;15.258;2023-06-22T11:31:11;20.33;;;11.57;;
29378;SDS011;16362;47.202;15.258;2023-06-22T11:33:51;24.85;;;11.77;;
29378;SDS011;16362;47.202;15.258;2023-06-22T11:36:18;29.77;;;11.77;;
29378;SDS011;16362;47.202;15.258;2023-06-22T11:38:45;22.23;;;12.45;;
29378;SDS011;16362;47.202;15.258;2023-06-22T11:41:12;20.52;;;11.73;;
29378;SDS011;16362;47.202;15.258;2023-06-22T11:43:39;25.80;;;11.98;;
29378;SDS011;16362;47.202;15.258;2023-06-22T11:46:05;22.58;;;11.45;;
29378;SDS011;16362;47.202;15.258;2023-06-22T11:48:32;16.63;;;11.65;;
29378;SDS011;16362;47.202;15.258;2023-06-22T11:50:59;24.40;;;11.80;;
29378;SDS011;16362;47.202;15.258;2023-06-22T11:53:26;15.82;;;10.82;;
29378;SDS011;16362;47.202;15.258;2023-06-22T11:55:53;26.20;;;12.15;;
29378;SDS011;16362;47.202;15.258;2023-06-22T11:58:21;14.38;;;11.25;;
29378;SDS011;16362;47.202;15.258;2023-06-22T12:00:48;20.50;;;11.70;;
29378;SDS011;16362;47.202;15.258;2023-06-22T12:03:18;26.58;;;10.85;;
29378;SDS011;16362;47.202;15.258;2023-06-22T12:05:45;20.38;;;12.07;;
29378;SDS011;16362;47.202;15.258;2023-06-22T12:08:12;19.00;;;11.98;;
29378;SDS011;16362;47.202;15.258;2023-06-22T12:10:40;24.75;;;11.73;;
29378;SDS011;16362;47.202;15.258;2023-06-22T12:13:06;24.83;;;11.50;;
29378;SDS011;16362;47.202;15.258;2023-06-22T12:15:33;21.23;;;11.82;;
29378;SDS011;16362;47.202;15.258;2023-06-22T12:18:00;28.40;;;11.80;;
29378;SDS011;16362;47.202;15.258;2023-06-22T12:20:27;17.58;;;11.82;;
29378;SDS011;16362;47.202;15.258;2023-06-22T12:22:55;18.65;;;11.07;;
29378;SDS011;16362;47.202;15.258;2023-06-22T12:25:24;17.73;;;11.73;;
29378;SDS011;16362;47.202;15.258;2023-06-22T12:27:51;24.40;;;11.52;;
29378;SDS011;16362;47.202;15.258;2023-06-22T12:30:17;16.55;;;11.63;;
29378;SDS011;16362;47.202;15.258;2023-06-22T12:32:44;17.02;;;11.63;;
29378;SDS011;16362;47.202;15.258;2023-06-22T12:35:11;21.75;;;11.50;;
29378;SDS011;16362;47.202;15.258;2023-06-22T12:37:43;25.67;;;11.43;;
29378;SDS011;16362;47.202;15.258;2023-06-22T12:40:10;22.35;;;12.30;;
29378;SDS011;16362;47.202;15.258;2023-06-22T12:42:37;16.60;;;11.30;;
29378;SDS011;16362;47.202;15.258;2023-06-22T12:45:04;23.25;;;12.25;;
29378;SDS011;16362;47.202;15.258;2023-06-22T12:47:31;17.70;;;11.43;;
29378;SDS011;16362;47.202;15.258;2023-06-22T12:49:58;29.15;;;12.93;;
29378;SDS011;16362;47.202;15.258;2023-06-22T12:52:25;18.70;;;11.45;;
29378;SDS011;16362;47.202;15.258;2023-06-22T12:54:51;16.10;;;11.50;;
29378;SDS011;16362;47.202;15.258;2023-06-22T12:57:21;20.85;;;11.70;;
29378;SDS011;16362;47.202;15.258;2023-06-22T12:59:48;19.00;;;11.73;;
29378;SDS011;16362;47.202;15.258;2023-06-22T13:02:14;19.00;;;11.32;;
29378;SDS011;16362;47.202;15.258;2023-06-22T13:04:41;21.40;;;12.20;;
29378;SDS011;16362;47.202;15.258;2023-06-22T13:07:09;17.90;;;12.05;;
29378;SDS011;16362;47.202;15.258;2023-06-22T13:09:48;20.38;;;11.60;;
29378;SDS011;16362;47.202;15.258;2023-06-22T13:12:21;20.10;;;11.60;;
29378;SDS011;16362;47.202;15.258;2023-06-22T13:14:48;22.98;;;12.00;;
29378;SDS011;16362;47.202;15.258;2023-06-22T13:17:15;24.33;;;12.32;;
29378;SDS011;16362;47.202;15.258;2023-06-22T13:19:42;18.63;;;12.48;;
29378;SDS011;16362;47.202;15.258;2023-06-22T13:22:25;25.40;;;12.68;;
29378;SDS011;16362;47.202;15.258;2023-06-22T13:24:54;15.40;;;12.23;;
29378;SDS011;16362;47.202;15.258;2023-06-22T13:27:21;17.88;;;12.13;;
29378;SDS011;16362;47.202;15.258;2023-06-22T13:29:49;22.50;;;12.77;;
29378;SDS011;16362;47.202;15.258;2023-06-22T13:32:15;17.25;;;11.77;;
29378;SDS011;16362;47.202;15.258;2023-06-22T13:34:43;22.95;;;13.82;;
29378;SDS011;16362;47.202;15.258;2023-06-22T13:37:10;23.05;;;12.05;;
29378;SDS011;16362;47.202;15.258;2023-06-22T13:39:36;22.35;;;12.57;;
29378;SDS011;16362;47.202;15.258;2023-06-22T13:42:03;22.67;;;12.20;;
29378;SDS011;16362;47.202;15.258;2023-06-22T13:44:31;20.60;;;12.13;;
29378;SDS011;16362;47.202;15.258;2023-06-22T13:46:58;22.05;;;12.88;;
29378;SDS011;16362;47.202;15.258;2023-06-22T13:49:24;30.23;;;13.98;;
29378;SDS011;16362;47.202;15.258;2023-06-22T13:51:51;21.85;;;12.98;;
29378;SDS011;16362;47.202;15.258;2023-06-22T13:54:18;31.77;;;13.27;;
29378;SDS011;16362;47.202;15.258;2023-06-22T13:56:47;28.52;;;12.77;;
29378;SDS011;16362;47.202;15.258;2023-06-22T13:59:14;30.38;;;13.65;;
29378;SDS011;16362;47.202;15.258;2023-06-22T14:01:40;23.77;;;13.77;;
29378;SDS011;16362;47.202;15.258;2023-06-22T14:04:08;25.25;;;13.07;;
29378;SDS011;16362;47.202;15.258;2023-06-22T14:06:34;20.13;;;13.75;;
29378;SDS011;16362;47.202;15.258;2023-06-22T14:09:01;22.95;;;12.95;;
29378;SDS011;16362;47.202;15.258;2023-06-22T14:11:28;32.03;;;13.77;;
29378;SDS011;16362;47.202;15.258;2023-06-22T14:13:55;26.83;;;12.40;;
29378;SDS011;16362;47.202;15.258;2023-06-22T14:16:22;29.17;;;13.80;;
29378;SDS011;16362;47.202;15.258;2023-06-22T14:18:48;18.15;;;12.77;;
29378;SDS011;16362;47.202;15.258;2023-06-22T14:21:15;26.83;;;12.75;;
29378;SDS011;16362;47.202;15.258;2023-06-22T14:23:41;19.58;;;13.07;;
29378;SDS011;16362;47.202;15.258;2023-06-22T14:26:08;29.85;;;13.80;;
29378;SDS011;16362;47.202;15.258;2023-06-22T14:28:35;18.48;;;13.38;;
29378;SDS011;16362;47.202;15.258;2023-06-22T14:31:01;22.33;;;13.63;;